Time;durP1;ratioP1;P1;durP2;ratioP2;P2;SDS_P1;SDS_P2;PMS_P1;PMS_P2;Temp;Humidity;BMP_temperature;BMP_pressure;BME280_temperature;BME280_humidity;BME280_pressure;Samples;Min_cycle;Max_cycle;Signal;HPM_P1;HPM_P2
2023/08/06 00:00:06;;;;;;;9.82;5.85;;;15.10;99.90;;;;;;5030713;28;20095;-61
2023/08/06 00:02:31;;;;;;;11.35;5.40;;;15.10;99.90;;;;;;5035097;28;20023;-61
2023/08/06 00:04:57;;;;;;;13.13;5.80;;;15.10;99.90;;;;;;5027878;28;20448;-61
2023/08/06 00:07:22;;;;;;;8.05;5.75;;;15.00;99.90;;;;;;5016993;28;20067;-61
2023/08/06 00:09:48;;;;;;;10.15;5.53;;;15.00;99.90;;;;;;5025466;28;20037;-62
2023/08/06 00:12:14;;;;;;;10.15;4.78;;;15.00;99.90;;;;;;5030189;28;20029;-59
2023/08/06 00:14:39;;;;;;;14.32;5.28;;;14.80;99.90;;;;;;5031357;28;20043;-61
2023/08/06 00:17:05;;;;;;;9.30;5.55;;;14.80;99.90;;;;;;5041076;28;20038;-60
2023/08/06 00:19:32;;;;;;;8.27;4.80;;;14.70;99.90;;;;;;5035069;28;20057;-61
2023/08/06 00:21:57;;;;;;;7.13;4.07;;;14.70;99.90;;;;;;5032292;28;20021;-62
2023/08/06 00:24:23;;;;;;;8.20;4.45;;;14.70;99.90;;;;;;5034052;28;20032;-61
2023/08/06 00:26:48;;;;;;;14.48;4.70;;;14.60;99.90;;;;;;5033521;28;20022;-61
2023/08/06 00:29:14;;;;;;;10.93;5.10;;;14.60;99.90;;;;;;5028631;28;20036;-61
2023/08/06 00:31:39;;;;;;;8.43;4.40;;;14.50;99.90;;;;;;5032050;28;20052;-60
2023/08/06 00:34:05;;;;;;;8.77;5.57;;;14.50;99.90;;;;;;5031448;28;20021;-63
2023/08/06 00:36:30;;;;;;;11.55;4.65;;;14.50;99.90;;;;;;5033490;28;20044;-61
2023/08/06 00:38:56;;;;;;;10.82;5.80;;;14.50;99.90;;;;;;5037211;28;20036;-62
2023/08/06 00:41:22;;;;;;;6.10;4.65;;;14.50;99.90;;;;;;5033134;28;20060;-60
2023/08/06 00:43:47;;;;;;;8.05;5.45;;;14.50;99.90;;;;;;5035054;28;20025;-60
2023/08/06 00:46:13;;;;;;;9.20;5.10;;;14.60;99.90;;;;;;5031176;28;20128;-60
2023/08/06 00:48:40;;;;;;;14.57;5.13;;;14.60;99.90;;;;;;5031615;28;20103;-61
2023/08/06 00:51:06;;;;;;;13.48;5.63;;;14.60;99.90;;;;;;5036893;28;20476;-61
2023/08/06 00:53:32;;;;;;;11.15;6.00;;;14.70;99.90;;;;;;5032310;28;20037;-59
2023/08/06 00:55:58;;;;;;;8.32;4.93;;;14.80;99.90;;;;;;5034957;28;20029;-61
2023/08/06 00:58:24;;;;;;;13.20;6.20;;;14.80;99.90;;;;;;5039112;28;20029;-62
2023/08/06 01:00:49;;;;;;;8.95;5.03;;;14.90;99.90;;;;;;5034154;28;20036;-60
2023/08/06 01:03:15;;;;;;;16.55;5.80;;;14.90;99.90;;;;;;5034004;28;20029;-61
2023/08/06 01:05:41;;;;;;;16.42;5.55;;;14.90;99.90;;;;;;5036156;28;20034;-60
2023/08/06 01:08:28;;;;;;;11.65;5.45;;;15.00;99.90;;;;;;5032385;28;20030;-63
2023/08/06 01:11:34;;;;;;;10.75;5.90;;;15.00;99.90;;;;;;5033904;28;20025;-62
2023/08/06 01:14:13;;;;;;;8.50;4.50;;;15.00;99.90;;;;;;4987694;28;20129;-61
2023/08/06 01:16:40;;;;;;;10.77;5.03;;;15.00;99.90;;;;;;4990688;28;20113;-62
2023/08/06 01:19:16;;;;;;;12.13;5.57;;;15.00;99.90;;;;;;5014243;28;20041;-63
2023/08/06 01:21:42;;;;;;;9.75;5.80;;;15.00;99.90;;;;;;5036371;28;20034;-60
2023/08/06 01:24:07;;;;;;;12.35;6.20;;;15.00;99.90;;;;;;5033959;28;20029;-62
2023/08/06 01:26:42;;;;;;;7.47;5.15;;;15.10;99.90;;;;;;5035227;28;20029;-62
2023/08/06 01:29:25;;;;;;;15.38;5.50;;;15.10;99.90;;;;;;5030373;28;20022;-62
2023/08/06 01:31:52;;;;;;;13.52;4.95;;;15.00;99.90;;;;;;5040427;28;20437;-61
2023/08/06 01:34:21;;;;;;;9.60;5.40;;;15.00;99.90;;;;;;5035183;28;20795;-63
2023/08/06 01:36:47;;;;;;;8.05;4.95;;;15.00;99.90;;;;;;5032420;28;20393;-62
2023/08/06 01:39:13;;;;;;;9.45;4.35;;;15.00;99.90;;;;;;5026705;28;20022;-62
2023/08/06 01:41:39;;;;;;;7.95;4.43;;;15.00;99.90;;;;;;5036771;28;20068;-61
2023/08/06 01:44:04;;;;;;;10.07;4.93;;;14.90;99.90;;;;;;5029344;28;20056;-61
2023/08/06 01:46:30;;;;;;;13.05;4.90;;;14.90;99.90;;;;;;5035353;28;20034;-60
2023/08/06 01:48:55;;;;;;;9.00;5.55;;;15.00;99.90;;;;;;5038876;28;20025;-63
2023/08/06 01:51:21;;;;;;;7.53;4.43;;;15.00;99.90;;;;;;5037457;28;20033;-62
2023/08/06 01:53:46;;;;;;;8.88;5.00;;;15.00;99.90;;;;;;5033309;28;20096;-63
2023/08/06 01:56:12;;;;;;;10.05;4.82;;;15.00;99.90;;;;;;5041620;28;20055;-60
2023/08/06 01:58:37;;;;;;;11.82;5.80;;;15.10;99.90;;;;;;5030204;28;20386;-61
2023/08/06 02:01:03;;;;;;;13.57;5.03;;;15.10;99.90;;;;;;5028439;28;20030;-61
2023/08/06 02:03:29;;;;;;;6.25;4.55;;;15.00;99.90;;;;;;5036186;28;20031;-61
2023/08/06 02:05:54;;;;;;;6.93;4.68;;;15.10;99.90;;;;;;5035355;28;20017;-63
2023/08/06 02:08:20;;;;;;;14.25;5.53;;;15.10;99.90;;;;;;5037002;28;20103;-62
2023/08/06 02:10:46;;;;;;;12.05;5.40;;;15.00;99.90;;;;;;5034170;28;20091;-63
2023/08/06 02:13:11;;;;;;;10.43;5.53;;;15.00;99.90;;;;;;5033261;28;20033;-63
2023/08/06 02:15:47;;;;;;;9.38;5.50;;;14.90;99.90;;;;;;5031299;28;20064;-63
2023/08/06 02:18:14;;;;;;;9.25;5.80;;;14.90;99.90;;;;;;5034044;28;20055;-62
2023/08/06 02:20:40;;;;;;;8.55;5.78;;;14.90;99.90;;;;;;5037539;28;20056;-62
2023/08/06 02:23:05;;;;;;;7.55;5.45;;;14.90;99.90;;;;;;5036676;28;20087;-62
2023/08/06 02:25:31;;;;;;;12.88;6.35;;;14.90;99.90;;;;;;5037762;28;20035;-63
2023/08/06 02:27:56;;;;;;;7.93;5.55;;;14.90;99.90;;;;;;5030421;28;20026;-63
2023/08/06 02:30:22;;;;;;;11.23;6.53;;;14.90;99.90;;;;;;5036423;28;20058;-63
2023/08/06 02:32:48;;;;;;;16.77;5.90;;;14.80;99.90;;;;;;5032630;28;20037;-63
2023/08/06 02:35:13;;;;;;;9.25;5.85;;;14.90;99.90;;;;;;5034897;28;20037;-63
2023/08/06 02:37:39;;;;;;;17.75;6.10;;;14.90;99.90;;;;;;5035351;28;20041;-63
2023/08/06 02:40:05;;;;;;;11.63;6.43;;;14.90;99.90;;;;;;5029723;28;20014;-61
2023/08/06 02:42:30;;;;;;;14.63;6.32;;;14.90;99.90;;;;;;5033062;28;20037;-63
2023/08/06 02:44:56;;;;;;;10.15;6.63;;;14.90;99.90;;;;;;5029449;28;20496;-61
2023/08/06 02:47:21;;;;;;;12.00;5.90;;;15.00;99.90;;;;;;5034764;28;20393;-62
2023/08/06 02:49:47;;;;;;;11.43;6.45;;;15.00;99.90;;;;;;5030871;28;20027;-62
2023/08/06 02:52:12;;;;;;;8.40;5.82;;;15.00;99.90;;;;;;5037127;28;20025;-62
2023/08/06 02:54:38;;;;;;;15.75;6.35;;;15.00;99.90;;;;;;5028078;28;20029;-61
2023/08/06 02:57:05;;;;;;;15.93;6.25;;;15.00;99.90;;;;;;5035009;28;20037;-62
2023/08/06 02:59:31;;;;;;;8.55;5.13;;;15.00;99.90;;;;;;5029179;28;20100;-63
2023/08/06 03:01:57;;;;;;;15.77;5.82;;;15.00;99.90;;;;;;5034809;28;20035;-61
2023/08/06 03:04:23;;;;;;;12.00;5.90;;;15.00;99.90;;;;;;5032852;28;20041;-61
2023/08/06 03:06:51;;;;;;;11.32;5.75;;;15.00;99.90;;;;;;5033363;28;20018;-63
2023/08/06 03:09:18;;;;;;;13.65;5.95;;;15.00;99.90;;;;;;5027698;28;20087;-63
2023/08/06 03:11:43;;;;;;;10.35;5.82;;;15.10;99.90;;;;;;5031720;28;20402;-63
2023/08/06 03:14:09;;;;;;;11.90;5.28;;;15.10;99.90;;;;;;5030895;28;20040;-64
2023/08/06 03:16:35;;;;;;;8.43;5.30;;;15.10;99.90;;;;;;5028659;28;20069;-61
2023/08/06 03:19:01;;;;;;;16.35;6.10;;;15.20;99.90;;;;;;5034826;28;20024;-61
2023/08/06 03:21:26;;;;;;;14.38;5.40;;;15.10;99.90;;;;;;5033467;28;20083;-58
2023/08/06 03:23:52;;;;;;;7.32;4.78;;;15.10;99.90;;;;;;5034464;28;20120;-64
2023/08/06 03:26:17;;;;;;;6.93;4.60;;;15.10;99.90;;;;;;5032232;28;20633;-63
2023/08/06 03:28:43;;;;;;;9.68;5.47;;;15.20;99.90;;;;;;5030774;28;20029;-62
2023/08/06 03:31:08;;;;;;;9.48;5.38;;;15.20;99.90;;;;;;5030889;28;20028;-60
2023/08/06 03:33:34;;;;;;;7.43;5.38;;;15.30;99.90;;;;;;5035026;28;20037;-61
2023/08/06 03:36:00;;;;;;;8.00;5.05;;;15.30;99.90;;;;;;5029255;28;20033;-61
2023/08/06 03:38:25;;;;;;;11.70;5.60;;;15.30;99.90;;;;;;5033569;28;20029;-60
2023/08/06 03:40:51;;;;;;;14.70;4.90;;;15.30;99.90;;;;;;5027152;28;20017;-63
2023/08/06 03:43:16;;;;;;;7.97;4.78;;;15.30;99.90;;;;;;5034519;28;20485;-62
2023/08/06 03:45:42;;;;;;;13.02;5.22;;;15.30;99.90;;;;;;5029274;28;20017;-62
2023/08/06 03:48:08;;;;;;;7.30;4.55;;;15.30;99.90;;;;;;5036005;28;20083;-62
2023/08/06 03:50:34;;;;;;;7.03;5.10;;;15.20;99.90;;;;;;5031260;28;20037;-61
2023/08/06 03:53:00;;;;;;;5.82;4.63;;;15.20;99.90;;;;;;5034561;28;20508;-62
2023/08/06 03:55:25;;;;;;;8.55;4.32;;;15.20;99.90;;;;;;5037006;28;20109;-61
2023/08/06 03:57:51;;;;;;;11.38;5.22;;;15.20;99.90;;;;;;5036462;28;20029;-62
2023/08/06 04:00:16;;;;;;;7.10;4.40;;;15.20;99.90;;;;;;5032122;28;20079;-61
2023/08/06 04:02:42;;;;;;;7.40;4.30;;;15.30;99.90;;;;;;5034777;28;20037;-59
2023/08/06 04:05:08;;;;;;;7.72;4.40;;;15.20;99.90;;;;;;5040517;28;20025;-63
2023/08/06 04:07:33;;;;;;;15.75;5.88;;;15.20;99.90;;;;;;5035382;28;20100;-61
2023/08/06 04:10:01;;;;;;;9.10;5.00;;;15.20;99.90;;;;;;5036900;28;20034;-62
2023/08/06 04:12:27;;;;;;;11.65;4.68;;;15.20;99.90;;;;;;5037107;28;20041;-63
2023/08/06 04:14:53;;;;;;;10.23;4.82;;;15.20;99.90;;;;;;5037377;28;20037;-62
2023/08/06 04:17:20;;;;;;;11.88;4.78;;;15.20;99.90;;;;;;5032835;28;20041;-63
2023/08/06 04:19:53;;;;;;;7.10;4.90;;;15.20;99.90;;;;;;5036116;28;20401;-62
2023/08/06 04:22:19;;;;;;;9.20;5.32;;;15.20;99.90;;;;;;5032782;28;20099;-64
2023/08/06 04:24:45;;;;;;;8.93;4.72;;;15.20;99.90;;;;;;5037359;28;20509;-63
2023/08/06 04:27:11;;;;;;;11.35;5.88;;;15.20;99.90;;;;;;5035914;28;20022;-62
2023/08/06 04:29:37;;;;;;;12.98;5.25;;;15.20;99.90;;;;;;5034470;28;20021;-61
2023/08/06 04:32:07;;;;;;;14.15;5.60;;;15.20;99.90;;;;;;5032128;28;20033;-64
2023/08/06 04:34:33;;;;;;;14.73;5.32;;;15.20;99.90;;;;;;5040671;28;20071;-63
2023/08/06 04:37:00;;;;;;;14.32;5.35;;;15.20;99.90;;;;;;5035675;28;20029;-63
2023/08/06 04:39:26;;;;;;;12.60;5.00;;;15.20;99.90;;;;;;5035490;28;20067;-63
2023/08/06 04:41:51;;;;;;;11.00;4.78;;;15.20;99.90;;;;;;5035304;28;20057;-62
2023/08/06 04:44:17;;;;;;;8.82;5.72;;;15.20;99.90;;;;;;5039155;28;20679;-63
2023/08/06 04:46:42;;;;;;;13.13;5.28;;;15.20;99.90;;;;;;5038203;28;20477;-62
2023/08/06 04:49:08;;;;;;;12.45;5.40;;;15.30;99.90;;;;;;5030401;28;20033;-63
2023/08/06 04:51:33;;;;;;;8.20;5.25;;;15.30;99.90;;;;;;5033472;28;20032;-63
2023/08/06 04:53:59;;;;;;;8.18;4.78;;;15.40;99.90;;;;;;5052000;28;20037;-60
2023/08/06 04:56:24;;;;;;;8.50;5.20;;;15.40;99.90;;;;;;5036821;28;20405;-63
2023/08/06 04:58:50;;;;;;;10.98;5.05;;;15.40;99.90;;;;;;5033670;28;20406;-61
2023/08/06 05:01:16;;;;;;;19.52;5.38;;;15.40;99.90;;;;;;5032462;28;20397;-62
2023/08/06 05:03:41;;;;;;;14.20;4.78;;;15.40;99.90;;;;;;5037610;28;20041;-61
2023/08/06 05:06:07;;;;;;;10.77;5.47;;;15.40;99.90;;;;;;5037778;28;20083;-62
2023/08/06 05:08:32;;;;;;;10.43;4.80;;;15.50;99.90;;;;;;5032340;28;20073;-62
2023/08/06 05:10:58;;;;;;;9.07;5.20;;;15.60;99.90;;;;;;5034330;28;20033;-61
2023/08/06 05:13:25;;;;;;;10.63;5.03;;;15.60;99.90;;;;;;5034780;28;20101;-62
2023/08/06 05:15:51;;;;;;;9.30;5.10;;;15.60;99.90;;;;;;5034715;28;20053;-61
2023/08/06 05:18:16;;;;;;;8.95;4.65;;;15.50;99.90;;;;;;5033698;28;20064;-62
2023/08/06 05:20:43;;;;;;;16.35;5.78;;;15.60;99.90;;;;;;5034129;28;20041;-62
2023/08/06 05:23:09;;;;;;;8.02;4.93;;;15.60;99.90;;;;;;5033192;28;20026;-62
2023/08/06 05:25:35;;;;;;;6.68;4.75;;;15.60;99.90;;;;;;5036086;28;20094;-61
2023/08/06 05:28:01;;;;;;;8.40;5.13;;;15.70;99.90;;;;;;5029760;28;20071;-61
2023/08/06 05:30:27;;;;;;;11.48;5.38;;;15.70;99.90;;;;;;5032078;28;20041;-62
2023/08/06 05:32:53;;;;;;;9.23;4.80;;;15.80;99.90;;;;;;5034390;28;20041;-62
2023/08/06 05:35:19;;;;;;;7.75;4.28;;;15.80;99.90;;;;;;5031025;28;20060;-60
2023/08/06 05:37:45;;;;;;;10.52;4.90;;;15.80;99.90;;;;;;5031978;28;20025;-63
2023/08/06 05:40:11;;;;;;;8.73;5.25;;;15.90;99.90;;;;;;5034196;28;20021;-60
2023/08/06 05:42:36;;;;;;;11.32;4.78;;;15.90;99.90;;;;;;5030567;28;20071;-63
2023/08/06 05:45:02;;;;;;;12.90;4.57;;;16.00;99.90;;;;;;5033265;28;20039;-62
2023/08/06 05:47:27;;;;;;;10.45;4.20;;;16.00;99.90;;;;;;5029170;28;20032;-62
2023/08/06 05:49:53;;;;;;;9.27;4.60;;;16.00;99.90;;;;;;5036022;28;20459;-61
2023/08/06 05:52:18;;;;;;;9.88;4.72;;;16.10;99.90;;;;;;5030931;28;20038;-60
2023/08/06 05:54:44;;;;;;;11.27;5.15;;;16.10;99.90;;;;;;5032227;28;20037;-62
2023/08/06 05:57:10;;;;;;;15.60;5.00;;;16.20;99.90;;;;;;5028128;28;20428;-62
2023/08/06 05:59:35;;;;;;;13.98;5.18;;;16.20;99.90;;;;;;5031863;28;20022;-61
2023/08/06 06:02:01;;;;;;;8.48;4.93;;;16.30;99.90;;;;;;5032824;28;20049;-62
2023/08/06 06:04:28;;;;;;;12.05;4.18;;;16.30;99.90;;;;;;5034221;28;20108;-60
2023/08/06 06:06:53;;;;;;;6.07;3.50;;;16.20;99.90;;;;;;5033079;28;20018;-59
2023/08/06 06:09:19;;;;;;;6.63;3.35;;;16.20;99.90;;;;;;5030748;28;20040;-59
2023/08/06 06:11:44;;;;;;;8.75;3.10;;;16.20;99.90;;;;;;5035423;28;20028;-61
2023/08/06 06:14:10;;;;;;;5.75;3.17;;;16.20;99.90;;;;;;5033956;28;20033;-61
2023/08/06 06:16:35;;;;;;;4.28;2.30;;;16.20;99.90;;;;;;5032002;28;20162;-61
2023/08/06 06:19:01;;;;;;;3.28;2.10;;;16.10;99.90;;;;;;5031970;28;20382;-61
2023/08/06 06:21:26;;;;;;;5.35;2.03;;;16.10;99.90;;;;;;5031171;28;20114;-63
2023/08/06 06:23:52;;;;;;;4.97;2.25;;;16.10;99.90;;;;;;5030962;28;20085;-55
2023/08/06 06:26:18;;;;;;;7.55;2.70;;;16.10;99.90;;;;;;5031072;28;20040;-55
2023/08/06 06:28:44;;;;;;;4.15;2.00;;;16.10;99.90;;;;;;5050644;28;20041;-56
2023/08/06 06:31:09;;;;;;;7.60;3.97;;;16.10;99.90;;;;;;5034606;28;20025;-58
2023/08/06 06:33:35;;;;;;;3.17;2.15;;;16.20;99.90;;;;;;5032237;28;20108;-53
2023/08/06 06:36:03;;;;;;;4.20;2.03;;;16.20;99.90;;;;;;5032652;28;20065;-57
2023/08/06 06:38:29;;;;;;;2.08;1.40;;;16.10;99.90;;;;;;5032049;28;20029;-56
2023/08/06 06:40:57;;;;;;;5.05;2.45;;;15.80;99.90;;;;;;5031316;28;20478;-54
2023/08/06 06:43:24;;;;;;;3.95;2.00;;;15.90;99.90;;;;;;5032270;28;20375;-55
2023/08/06 06:45:53;;;;;;;2.22;1.50;;;15.90;99.90;;;;;;5031196;28;20024;-57
2023/08/06 06:48:19;;;;;;;1.70;1.35;;;15.90;99.90;;;;;;5038908;28;20536;-57
2023/08/06 06:50:48;;;;;;;4.28;1.00;;;15.90;99.90;;;;;;5034172;28;20041;-57
2023/08/06 06:53:13;;;;;;;2.47;1.10;;;15.70;99.90;;;;;;5029489;28;20109;-56
2023/08/06 06:55:39;;;;;;;4.38;1.35;;;15.70;99.90;;;;;;5034471;28;20450;-56
2023/08/06 06:58:04;;;;;;;2.90;1.05;;;15.60;99.90;;;;;;5033089;28;20029;-60
2023/08/06 07:00:30;;;;;;;4.13;1.40;;;15.60;99.90;;;;;;5028408;28;20029;-57
2023/08/06 07:02:55;;;;;;;2.83;1.77;;;15.60;99.90;;;;;;5030737;28;20104;-54
2023/08/06 07:05:21;;;;;;;2.47;1.63;;;15.50;99.90;;;;;;5031815;28;20033;-60
2023/08/06 07:07:46;;;;;;;5.85;1.48;;;15.50;99.90;;;;;;5030305;28;20505;-58
2023/08/06 07:10:12;;;;;;;1.65;1.50;;;15.40;99.90;;;;;;5030908;28;20033;-58
2023/08/06 07:12:37;;;;;;;8.15;1.60;;;15.40;99.90;;;;;;5028003;28;20032;-62
2023/08/06 07:15:06;;;;;;;2.17;1.92;;;15.30;99.90;;;;;;5029998;28;20091;-54
2023/08/06 07:17:31;;;;;;;3.95;1.90;;;15.40;99.90;;;;;;5033711;28;20061;-57
2023/08/06 07:19:57;;;;;;;5.82;1.98;;;15.40;99.90;;;;;;5039910;28;20409;-59
2023/08/06 07:22:22;;;;;;;3.15;1.67;;;15.40;99.90;;;;;;5034425;28;20485;-55
2023/08/06 07:24:48;;;;;;;3.47;2.00;;;15.40;99.90;;;;;;5025999;28;20037;-58
2023/08/06 07:27:13;;;;;;;4.00;2.00;;;15.40;99.90;;;;;;5028500;28;20036;-58
2023/08/06 07:29:39;;;;;;;6.70;2.38;;;15.40;99.90;;;;;;5037429;28;20554;-56
2023/08/06 07:32:07;;;;;;;3.97;2.00;;;15.40;99.90;;;;;;5028279;28;20025;-58
2023/08/06 07:34:32;;;;;;;5.28;2.47;;;15.40;99.90;;;;;;5035006;28;20045;-56
2023/08/06 07:36:58;;;;;;;4.82;2.15;;;15.50;99.90;;;;;;5034446;28;20026;-56
2023/08/06 07:39:23;;;;;;;3.22;2.20;;;15.50;99.90;;;;;;5034063;28;20533;-58
2023/08/06 07:41:49;;;;;;;4.32;2.72;;;15.60;99.90;;;;;;5029723;28;20060;-59
2023/08/06 07:44:15;;;;;;;5.03;2.05;;;15.60;99.90;;;;;;5047696;28;20028;-59
2023/08/06 07:46:40;;;;;;;13.82;2.33;;;15.60;99.90;;;;;;5028459;28;20496;-54
2023/08/06 07:49:06;;;;;;;2.53;2.33;;;15.70;99.90;;;;;;5034016;28;20026;-58
2023/08/06 07:51:31;;;;;;;3.50;2.13;;;15.70;99.90;;;;;;5033077;28;20823;-59
2023/08/06 07:53:57;;;;;;;7.22;2.03;;;15.70;99.90;;;;;;5029316;28;20091;-54
2023/08/06 07:56:22;;;;;;;3.70;2.80;;;15.80;99.90;;;;;;5031899;28;20030;-58
2023/08/06 07:58:48;;;;;;;4.57;2.67;;;15.90;99.90;;;;;;5024566;28;20034;-58
2023/08/06 08:01:13;;;;;;;2.63;2.30;;;15.90;99.90;;;;;;5036281;28;20021;-59
2023/08/06 08:03:39;;;;;;;8.02;2.78;;;16.00;99.90;;;;;;5029492;28;20490;-56
2023/08/06 08:06:04;;;;;;;5.35;2.70;;;16.00;99.90;;;;;;5032474;28;20033;-60
2023/08/06 08:08:30;;;;;;;3.92;2.47;;;16.00;99.90;;;;;;5034733;28;20040;-57
2023/08/06 08:10:55;;;;;;;5.30;2.75;;;16.00;99.90;;;;;;5033193;28;20034;-58
2023/08/06 08:13:21;;;;;;;5.72;2.67;;;16.10;99.90;;;;;;5029690;28;20104;-54
2023/08/06 08:15:47;;;;;;;3.67;2.45;;;16.10;99.90;;;;;;5038492;28;20474;-59
2023/08/06 08:18:12;;;;;;;3.13;2.40;;;16.30;99.90;;;;;;5032741;28;20021;-60
2023/08/06 08:20:38;;;;;;;4.22;2.58;;;16.30;99.90;;;;;;5033553;28;20131;-58
2023/08/06 08:23:03;;;;;;;5.10;2.10;;;16.40;99.90;;;;;;5030624;28;20029;-58
2023/08/06 08:25:29;;;;;;;3.70;2.47;;;16.50;99.90;;;;;;5032455;28;20022;-60
2023/08/06 08:27:55;;;;;;;3.95;1.95;;;16.60;99.90;;;;;;5045672;28;20032;-58
2023/08/06 08:30:21;;;;;;;4.88;1.92;;;16.60;99.90;;;;;;5026401;28;20025;-54
2023/08/06 08:32:48;;;;;;;4.25;1.95;;;16.70;99.90;;;;;;5032630;28;20032;-59
2023/08/06 08:35:14;;;;;;;1.90;1.77;;;16.80;99.90;;;;;;5035753;28;20128;-58
2023/08/06 08:37:40;;;;;;;3.10;1.60;;;16.90;99.90;;;;;;5043956;28;20404;-59
2023/08/06 08:40:07;;;;;;;1.77;1.30;;;16.80;99.90;;;;;;5032571;28;20029;-57
2023/08/06 08:42:32;;;;;;;1.70;1.60;;;16.90;99.90;;;;;;5038259;28;20079;-59
2023/08/06 08:44:58;;;;;;;2.15;1.45;;;16.90;99.90;;;;;;5032772;28;20025;-56
2023/08/06 08:47:24;;;;;;;1.05;1.02;;;17.00;99.90;;;;;;5030669;28;20061;-58
2023/08/06 08:49:54;;;;;;;4.20;1.30;;;17.00;99.90;;;;;;5032536;28;20512;-59
2023/08/06 08:52:22;;;;;;;1.77;1.33;;;16.90;99.90;;;;;;5036485;28;20497;-56
2023/08/06 08:54:52;;;;;;;2.53;1.35;;;17.10;99.90;;;;;;5033327;28;20033;-61
2023/08/06 08:57:19;;;;;;;3.25;1.60;;;17.20;99.90;;;;;;5037904;28;20033;-59
2023/08/06 08:59:44;;;;;;;3.20;1.38;;;17.20;99.90;;;;;;5033459;28;20439;-54
2023/08/06 09:02:12;;;;;;;2.75;1.30;;;17.20;99.90;;;;;;5035594;28;20027;-60
2023/08/06 09:04:39;;;;;;;2.42;1.45;;;17.10;99.90;;;;;;5037748;28;20028;-57
2023/08/06 09:07:06;;;;;;;1.40;1.08;;;17.10;99.90;;;;;;5034609;28;20018;-58
2023/08/06 09:09:34;;;;;;;3.65;1.33;;;17.00;99.90;;;;;;5035491;28;20033;-54
2023/08/06 09:12:10;;;;;;;2.95;1.50;;;17.00;99.90;;;;;;5033193;28;20036;-57
2023/08/06 09:14:36;;;;;;;4.53;1.45;;;17.00;99.90;;;;;;5032657;28;20074;-56
2023/08/06 09:17:02;;;;;;;2.60;1.23;;;17.00;99.90;;;;;;5036214;28;20033;-57
2023/08/06 09:19:28;;;;;;;1.80;1.48;;;16.90;99.90;;;;;;5029591;28;20030;-56
2023/08/06 09:21:55;;;;;;;2.72;1.50;;;17.00;99.90;;;;;;5041400;28;20021;-56
2023/08/06 09:24:22;;;;;;;1.77;1.35;;;17.00;99.90;;;;;;5030584;28;20053;-60
2023/08/06 09:26:47;;;;;;;2.53;1.77;;;17.00;99.90;;;;;;5035251;28;20096;-58
2023/08/06 09:29:13;;;;;;;4.55;1.70;;;17.00;99.90;;;;;;5035696;28;20033;-57
2023/08/06 09:31:51;;;;;;;1.50;1.40;;;17.00;99.90;;;;;;5035547;28;20386;-60
2023/08/06 09:34:18;;;;;;;2.13;1.80;;;17.00;99.90;;;;;;5029973;28;20048;-58
2023/08/06 09:36:54;;;;;;;2.03;1.65;;;17.00;99.90;;;;;;5037457;28;20051;-55
2023/08/06 09:39:21;;;;;;;2.67;1.92;;;17.10;99.90;;;;;;5032126;28;20033;-57
2023/08/06 09:41:50;;;;;;;3.63;1.90;;;17.10;99.90;;;;;;5034088;28;20531;-52
2023/08/06 09:44:21;;;;;;;2.30;2.10;;;17.00;99.90;;;;;;5029636;28;20021;-56
2023/08/06 09:46:49;;;;;;;4.90;2.47;;;17.00;99.90;;;;;;5029375;28;20029;-56
2023/08/06 09:49:15;;;;;;;5.32;2.85;;;16.80;99.90;;;;;;5029651;28;20049;-55
2023/08/06 09:51:41;;;;;;;5.65;3.47;;;16.70;99.90;;;;;;5033695;28;20085;-56
2023/08/06 09:54:08;;;;;;;4.60;3.65;;;16.50;99.90;;;;;;5030793;28;20029;-61
2023/08/06 09:56:37;;;;;;;4.85;4.35;;;16.50;99.90;;;;;;5029096;28;20021;-58
2023/08/06 09:59:06;;;;;;;8.70;4.45;;;16.40;99.90;;;;;;5030980;28;20075;-57
2023/08/06 10:01:33;;;;;;;6.53;5.30;;;16.40;99.90;;;;;;5030527;28;20523;-58
2023/08/06 10:04:00;;;;;;;9.73;4.95;;;16.30;99.90;;;;;;5029424;28;20036;-58
2023/08/06 10:06:27;;;;;;;5.38;4.10;;;16.20;99.90;;;;;;5034823;28;20622;-54
2023/08/06 10:08:52;;;;;;;4.90;4.20;;;16.20;99.90;;;;;;5033523;28;20116;-55
2023/08/06 10:11:21;;;;;;;3.58;2.15;;;16.10;99.90;;;;;;5032835;28;20036;-56
2023/08/06 10:13:48;;;;;;;3.13;1.30;;;15.90;99.90;;;;;;5031462;28;20033;-54
2023/08/06 10:16:14;;;;;;;1.63;1.08;;;15.70;99.90;;;;;;5029504;28;20039;-56
2023/08/06 10:18:40;;;;;;;2.42;0.80;;;15.60;99.90;;;;;;5031970;28;20053;-55
2023/08/06 10:21:09;;;;;;;0.68;0.50;;;15.40;99.90;;;;;;5037816;28;20080;-57
2023/08/06 10:23:35;;;;;;;0.77;0.77;;;15.40;99.90;;;;;;5032317;28;20021;-61
2023/08/06 10:26:01;;;;;;;1.38;0.68;;;15.20;99.90;;;;;;5034392;28;20111;-57
2023/08/06 10:28:37;;;;;;;0.80;0.77;;;15.20;99.90;;;;;;5032000;28;20104;-57
2023/08/06 10:31:06;;;;;;;3.53;0.65;;;15.10;99.90;;;;;;5031244;28;20079;-56
2023/08/06 10:33:45;;;;;;;1.85;0.90;;;15.10;99.90;;;;;;5029726;28;20096;-57
2023/08/06 10:36:12;;;;;;;1.50;1.10;;;14.90;99.90;;;;;;5029225;28;20029;-56
2023/08/06 10:38:50;;;;;;;3.40;1.40;;;14.90;99.90;;;;;;5027425;28;20026;-61
2023/08/06 10:41:29;;;;;;;3.17;1.40;;;14.90;99.90;;;;;;5032943;28;20425;-61
2023/08/06 10:44:08;;;;;;;3.97;1.80;;;14.90;99.90;;;;;;5035700;28;20025;-57
2023/08/06 10:46:34;;;;;;;4.40;1.98;;;14.80;99.90;;;;;;5027708;28;20018;-59
2023/08/06 10:49:00;;;;;;;4.40;1.92;;;14.80;99.90;;;;;;5033534;28;20036;-57
2023/08/06 10:51:27;;;;;;;2.28;1.75;;;14.60;99.90;;;;;;5031958;28;20031;-57
2023/08/06 10:53:52;;;;;;;6.20;2.38;;;14.60;99.90;;;;;;5032482;28;20531;-58
2023/08/06 10:56:23;;;;;;;5.00;2.60;;;14.60;99.90;;;;;;5039917;28;20025;-61
2023/08/06 10:58:50;;;;;;;5.40;2.05;;;14.60;99.90;;;;;;5030073;28;20096;-60
2023/08/06 11:01:15;;;;;;;4.50;1.90;;;14.60;99.90;;;;;;5028406;28;20409;-62
2023/08/06 11:03:42;;;;;;;4.68;1.90;;;14.60;99.90;;;;;;5023928;28;20030;-62
2023/08/06 11:06:09;;;;;;;4.88;2.13;;;14.60;99.90;;;;;;5045606;28;20050;-63
2023/08/06 11:08:36;;;;;;;4.97;1.95;;;14.60;99.90;;;;;;5028533;28;20222;-60
2023/08/06 11:11:16;;;;;;;4.65;1.90;;;14.60;99.90;;;;;;5033256;28;20021;-59
2023/08/06 11:13:49;;;;;;;3.50;2.60;;;14.70;99.90;;;;;;5028972;28;20500;-62
2023/08/06 11:16:20;;;;;;;9.75;2.60;;;14.60;99.90;;;;;;5026769;28;20025;-61
2023/08/06 11:18:47;;;;;;;5.68;2.33;;;14.70;99.90;;;;;;5024398;28;20401;-63
2023/08/06 11:21:12;;;;;;;8.75;3.13;;;14.70;99.90;;;;;;5026068;28;20092;-62
2023/08/06 11:23:39;;;;;;;5.88;2.20;;;14.60;99.90;;;;;;5019980;28;20684;-60
2023/08/06 11:26:04;;;;;;;9.02;2.30;;;14.70;99.90;;;;;;5026995;28;20025;-63
2023/08/06 11:28:30;;;;;;;12.55;2.65;;;14.50;99.90;;;;;;5025344;28;20152;-61
2023/08/06 11:30:56;;;;;;;6.40;2.15;;;14.50;99.90;;;;;;5028187;28;20037;-65
2023/08/06 11:33:27;;;;;;;5.13;2.08;;;14.60;99.90;;;;;;5029851;28;20043;-63
2023/08/06 11:35:57;;;;;;;9.25;2.30;;;14.60;99.90;;;;;;5029532;28;20132;-61
2023/08/06 11:38:28;;;;;;;5.00;1.98;;;14.60;99.90;;;;;;5024114;28;20116;-64
2023/08/06 11:40:54;;;;;;;7.80;1.85;;;14.60;99.90;;;;;;5041002;28;20102;-63
2023/08/06 11:43:22;;;;;;;11.68;2.47;;;14.60;99.90;;;;;;5026378;28;20452;-64
2023/08/06 11:45:48;;;;;;;5.47;1.85;;;14.60;99.90;;;;;;5024857;28;20520;-66
2023/08/06 11:48:13;;;;;;;6.80;1.55;;;14.70;99.90;;;;;;5027948;28;20041;-63
2023/08/06 11:50:39;;;;;;;3.47;1.50;;;14.80;99.90;;;;;;5031659;28;20027;-64
2023/08/06 11:53:05;;;;;;;8.00;1.63;;;14.80;99.90;;;;;;5036280;28;20164;-61
2023/08/06 11:55:31;;;;;;;5.63;2.25;;;14.80;99.90;;;;;;5028860;28;20068;-63
2023/08/06 11:57:57;;;;;;;8.68;1.73;;;14.80;99.90;;;;;;5023482;28;20075;-64
2023/08/06 12:00:24;;;;;;;2.55;1.20;;;15.00;99.90;;;;;;5027367;28;20670;-63
2023/08/06 12:02:52;;;;;;;9.75;2.17;;;14.90;99.90;;;;;;5030132;28;20030;-62
2023/08/06 12:05:23;;;;;;;6.30;1.58;;;14.90;99.90;;;;;;5028835;28;20128;-60
2023/08/06 12:07:55;;;;;;;8.00;1.27;;;15.00;99.90;;;;;;5031771;28;20025;-62
2023/08/06 12:10:21;;;;;;;1.50;0.95;;;15.00;99.90;;;;;;5027739;28;20026;-63
2023/08/06 12:12:48;;;;;;;6.45;1.30;;;15.00;99.90;;;;;;5035322;28;20040;-59
2023/08/06 12:15:14;;;;;;;3.33;1.38;;;15.10;99.90;;;;;;5027444;28;20112;-64
2023/08/06 12:17:39;;;;;;;3.45;1.33;;;15.20;99.90;;;;;;5031246;28;20024;-64
2023/08/06 12:20:07;;;;;;;6.75;1.50;;;15.30;99.90;;;;;;5029395;28;20041;-65
2023/08/06 12:22:38;;;;;;;4.57;1.55;;;15.30;99.90;;;;;;5029575;28;20075;-63
2023/08/06 12:25:08;;;;;;;2.60;1.25;;;15.40;99.90;;;;;;5029896;28;20505;-65
2023/08/06 12:27:38;;;;;;;2.72;1.30;;;15.40;99.90;;;;;;5030550;28;20440;-63
2023/08/06 12:30:05;;;;;;;6.88;1.90;;;15.50;99.90;;;;;;5030992;28;20075;-64
2023/08/06 12:32:31;;;;;;;3.42;1.42;;;15.50;99.90;;;;;;5031000;28;20099;-63
2023/08/06 12:34:57;;;;;;;7.40;1.20;;;15.50;99.90;;;;;;5029749;28;20490;-63
2023/08/06 12:37:23;;;;;;;5.47;1.50;;;15.50;99.90;;;;;;5030867;28;20083;-63
2023/08/06 12:39:49;;;;;;;4.32;1.40;;;15.40;99.90;;;;;;5028680;28;20116;-62